sensor_id;sensor_type;location;lat;lon;timestamp;P1;durP1;ratioP1;P2;durP2;ratioP2
21266;SDS011;10791;53.108;18.326;2022-10-20T00:04:26;12.87;;;7.13;;
21266;SDS011;10791;53.108;18.326;2022-10-20T00:09:31;11.40;;;6.90;;
21266;SDS011;10791;53.108;18.326;2022-10-20T00:14:34;9.43;;;5.47;;
21266;SDS011;10791;53.108;18.326;2022-10-20T00:19:37;13.23;;;7.50;;
21266;SDS011;10791;53.108;18.326;2022-10-20T00:24:40;18.53;;;9.20;;
21266;SDS011;10791;53.108;18.326;2022-10-20T00:29:46;14.57;;;8.30;;
21266;SDS011;10791;53.108;18.326;2022-10-20T00:34:50;13.67;;;7.83;;
21266;SDS011;10791;53.108;18.326;2022-10-20T00:39:53;11.63;;;6.90;;
21266;SDS011;10791;53.108;18.326;2022-10-20T00:44:57;15.23;;;7.57;;
21266;SDS011;10791;53.108;18.326;2022-10-20T00:55:20;16.60;;;8.63;;
21266;SDS011;10791;53.108;18.326;2022-10-20T01:00:27;19.67;;;8.60;;
21266;SDS011;10791;53.108;18.326;2022-10-20T01:05:31;20.10;;;9.03;;
21266;SDS011;10791;53.108;18.326;2022-10-20T01:10:39;16.37;;;8.20;;
21266;SDS011;10791;53.108;18.326;2022-10-20T01:21:17;12.50;;;6.80;;
21266;SDS011;10791;53.108;18.326;2022-10-20T01:37:36;11.70;;;7.07;;
21266;SDS011;10791;53.108;18.326;2022-10-20T01:42:50;15.37;;;7.90;;
21266;SDS011;10791;53.108;18.326;2022-10-20T01:47:56;16.97;;;8.73;;
21266;SDS011;10791;53.108;18.326;2022-10-20T01:53:01;15.53;;;7.90;;
21266;SDS011;10791;53.108;18.326;2022-10-20T02:08:51;13.13;;;8.07;;
21266;SDS011;10791;53.108;18.326;2022-10-20T02:13:58;16.77;;;8.67;;
21266;SDS011;10791;53.108;18.326;2022-10-20T02:19:02;15.30;;;8.60;;
21266;SDS011;10791;53.108;18.326;2022-10-20T02:24:08;14.03;;;7.67;;
21266;SDS011;10791;53.108;18.326;2022-10-20T02:29:13;13.07;;;7.07;;
21266;SDS011;10791;53.108;18.326;2022-10-20T02:34:19;19.33;;;7.63;;
21266;SDS011;10791;53.108;18.326;2022-10-20T02:39:23;11.30;;;7.13;;
21266;SDS011;10791;53.108;18.326;2022-10-20T02:44:27;14.93;;;6.77;;
21266;SDS011;10791;53.108;18.326;2022-10-20T02:49:31;14.03;;;7.27;;
21266;SDS011;10791;53.108;18.326;2022-10-20T02:54:34;12.20;;;6.90;;
21266;SDS011;10791;53.108;18.326;2022-10-20T02:59:37;14.30;;;6.97;;
21266;SDS011;10791;53.108;18.326;2022-10-20T03:04:40;15.47;;;7.93;;
21266;SDS011;10791;53.108;18.326;2022-10-20T03:09:44;21.60;;;8.13;;
21266;SDS011;10791;53.108;18.326;2022-10-20T03:14:47;11.63;;;6.87;;
21266;SDS011;10791;53.108;18.326;2022-10-20T03:19:50;11.60;;;7.40;;
21266;SDS011;10791;53.108;18.326;2022-10-20T03:24:54;15.83;;;7.67;;
21266;SDS011;10791;53.108;18.326;2022-10-20T03:29:57;19.87;;;8.83;;
21266;SDS011;10791;53.108;18.326;2022-10-20T03:35:00;14.97;;;8.27;;
21266;SDS011;10791;53.108;18.326;2022-10-20T03:40:04;13.10;;;6.93;;
21266;SDS011;10791;53.108;18.326;2022-10-20T03:45:08;16.03;;;8.07;;
21266;SDS011;10791;53.108;18.326;2022-10-20T03:50:15;14.53;;;8.63;;
21266;SDS011;10791;53.108;18.326;2022-10-20T03:55:19;16.23;;;8.40;;
21266;SDS011;10791;53.108;18.326;2022-10-20T04:00:22;13.60;;;8.17;;
21266;SDS011;10791;53.108;18.326;2022-10-20T04:05:25;17.50;;;8.80;;
21266;SDS011;10791;53.108;18.326;2022-10-20T04:10:29;14.73;;;9.07;;
21266;SDS011;10791;53.108;18.326;2022-10-20T04:15:32;18.80;;;8.50;;
21266;SDS011;10791;53.108;18.326;2022-10-20T04:20:36;19.30;;;9.10;;
21266;SDS011;10791;53.108;18.326;2022-10-20T04:25:44;20.10;;;9.20;;
21266;SDS011;10791;53.108;18.326;2022-10-20T04:30:50;18.60;;;9.03;;
21266;SDS011;10791;53.108;18.326;2022-10-20T04:35:57;16.67;;;8.17;;
21266;SDS011;10791;53.108;18.326;2022-10-20T04:41:05;16.00;;;8.83;;
21266;SDS011;10791;53.108;18.326;2022-10-20T04:46:09;18.43;;;8.80;;
21266;SDS011;10791;53.108;18.326;2022-10-20T04:51:12;15.40;;;8.97;;
21266;SDS011;10791;53.108;18.326;2022-10-20T04:56:18;13.13;;;9.03;;
21266;SDS011;10791;53.108;18.326;2022-10-20T05:01:24;12.27;;;7.70;;
21266;SDS011;10791;53.108;18.326;2022-10-20T05:06:29;15.03;;;7.63;;
21266;SDS011;10791;53.108;18.326;2022-10-20T05:11:35;13.23;;;8.37;;
21266;SDS011;10791;53.108;18.326;2022-10-20T05:16:38;12.57;;;7.63;;
21266;SDS011;10791;53.108;18.326;2022-10-20T05:21:42;17.63;;;8.17;;
21266;SDS011;10791;53.108;18.326;2022-10-20T05:26:45;13.73;;;8.17;;
21266;SDS011;10791;53.108;18.326;2022-10-20T05:31:48;13.27;;;8.40;;
21266;SDS011;10791;53.108;18.326;2022-10-20T05:36:52;15.40;;;9.07;;
21266;SDS011;10791;53.108;18.326;2022-10-20T05:41:55;19.27;;;8.90;;
21266;SDS011;10791;53.108;18.326;2022-10-20T05:46:58;16.63;;;9.43;;
21266;SDS011;10791;53.108;18.326;2022-10-20T05:52:02;14.50;;;8.17;;
21266;SDS011;10791;53.108;18.326;2022-10-20T05:57:05;15.63;;;8.57;;
21266;SDS011;10791;53.108;18.326;2022-10-20T06:03:21;20.77;;;9.87;;
21266;SDS011;10791;53.108;18.326;2022-10-20T06:08:32;20.37;;;9.40;;
21266;SDS011;10791;53.108;18.326;2022-10-20T06:13:36;15.27;;;9.43;;
21266;SDS011;10791;53.108;18.326;2022-10-20T06:18:39;19.47;;;10.13;;
21266;SDS011;10791;53.108;18.326;2022-10-20T06:23:46;19.03;;;9.57;;
21266;SDS011;10791;53.108;18.326;2022-10-20T06:28:51;17.37;;;10.03;;
21266;SDS011;10791;53.108;18.326;2022-10-20T06:34:04;20.20;;;10.67;;
21266;SDS011;10791;53.108;18.326;2022-10-20T06:39:13;23.37;;;12.33;;
21266;SDS011;10791;53.108;18.326;2022-10-20T06:44:28;21.50;;;11.87;;
21266;SDS011;10791;53.108;18.326;2022-10-20T06:49:32;26.60;;;13.47;;
21266;SDS011;10791;53.108;18.326;2022-10-20T06:54:35;25.90;;;13.57;;
21266;SDS011;10791;53.108;18.326;2022-10-20T06:59:38;24.00;;;13.70;;
21266;SDS011;10791;53.108;18.326;2022-10-20T07:04:44;20.37;;;12.83;;
21266;SDS011;10791;53.108;18.326;2022-10-20T07:09:47;25.00;;;14.50;;
21266;SDS011;10791;53.108;18.326;2022-10-20T07:14:50;24.20;;;13.37;;
21266;SDS011;10791;53.108;18.326;2022-10-20T07:19:54;23.30;;;12.90;;
21266;SDS011;10791;53.108;18.326;2022-10-20T07:24:57;26.73;;;15.63;;
21266;SDS011;10791;53.108;18.326;2022-10-20T07:30:07;30.37;;;15.97;;
21266;SDS011;10791;53.108;18.326;2022-10-20T07:35:11;36.43;;;16.97;;
21266;SDS011;10791;53.108;18.326;2022-10-20T07:40:14;30.27;;;16.37;;
21266;SDS011;10791;53.108;18.326;2022-10-20T07:45:18;36.30;;;17.03;;
21266;SDS011;10791;53.108;18.326;2022-10-20T07:50:21;28.23;;;16.27;;
21266;SDS011;10791;53.108;18.326;2022-10-20T07:55:25;30.70;;;18.40;;
21266;SDS011;10791;53.108;18.326;2022-10-20T08:00:45;28.70;;;17.97;;
21266;SDS011;10791;53.108;18.326;2022-10-20T08:05:48;33.60;;;17.77;;
21266;SDS011;10791;53.108;18.326;2022-10-20T08:10:52;32.83;;;17.97;;
21266;SDS011;10791;53.108;18.326;2022-10-20T08:15:56;35.03;;;18.17;;
21266;SDS011;10791;53.108;18.326;2022-10-20T08:21:05;24.27;;;16.53;;
21266;SDS011;10791;53.108;18.326;2022-10-20T08:26:09;32.60;;;19.20;;
21266;SDS011;10791;53.108;18.326;2022-10-20T08:31:14;43.03;;;24.43;;
21266;SDS011;10791;53.108;18.326;2022-10-20T08:36:18;52.57;;;28.60;;
21266;SDS011;10791;53.108;18.326;2022-10-20T08:41:27;51.47;;;28.63;;
21266;SDS011;10791;53.108;18.326;2022-10-20T08:46:58;49.23;;;30.30;;
21266;SDS011;10791;53.108;18.326;2022-10-20T08:52:03;52.27;;;29.13;;
21266;SDS011;10791;53.108;18.326;2022-10-20T08:57:20;48.80;;;29.23;;
21266;SDS011;10791;53.108;18.326;2022-10-20T09:02:25;52.13;;;26.60;;
21266;SDS011;10791;53.108;18.326;2022-10-20T09:07:32;41.87;;;24.80;;
21266;SDS011;10791;53.108;18.326;2022-10-20T09:12:42;37.53;;;21.87;;
21266;SDS011;10791;53.108;18.326;2022-10-20T09:17:52;35.73;;;21.03;;
21266;SDS011;10791;53.108;18.326;2022-10-20T09:23:03;26.07;;;16.67;;
21266;SDS011;10791;53.108;18.326;2022-10-20T09:28:27;22.37;;;13.87;;
21266;SDS011;10791;53.108;18.326;2022-10-20T09:33:49;18.37;;;9.80;;
21266;SDS011;10791;53.108;18.326;2022-10-20T09:38:52;13.30;;;8.87;;
21266;SDS011;10791;53.108;18.326;2022-10-20T09:44:13;9.50;;;5.00;;
21266;SDS011;10791;53.108;18.326;2022-10-20T09:49:28;4.53;;;2.80;;
21266;SDS011;10791;53.108;18.326;2022-10-20T09:54:37;3.20;;;1.53;;
21266;SDS011;10791;53.108;18.326;2022-10-20T09:59:43;3.17;;;1.40;;
21266;SDS011;10791;53.108;18.326;2022-10-20T10:04:49;3.13;;;1.37;;
21266;SDS011;10791;53.108;18.326;2022-10-20T10:10:01;2.30;;;1.00;;
21266;SDS011;10791;53.108;18.326;2022-10-20T10:15:25;2.67;;;1.10;;
21266;SDS011;10791;53.108;18.326;2022-10-20T10:20:33;4.53;;;1.07;;
21266;SDS011;10791;53.108;18.326;2022-10-20T10:25:40;3.17;;;1.13;;
21266;SDS011;10791;53.108;18.326;2022-10-20T10:30:44;3.57;;;1.63;;
21266;SDS011;10791;53.108;18.326;2022-10-20T10:35:51;2.70;;;1.20;;
21266;SDS011;10791;53.108;18.326;2022-10-20T10:47:25;1.90;;;0.83;;
21266;SDS011;10791;53.108;18.326;2022-10-20T10:52:32;1.13;;;0.73;;
21266;SDS011;10791;53.108;18.326;2022-10-20T11:03:29;4.00;;;1.33;;
21266;SDS011;10791;53.108;18.326;2022-10-20T11:30:00;10.43;;;3.20;;
21266;SDS011;10791;53.108;18.326;2022-10-20T11:35:14;9.50;;;3.67;;
21266;SDS011;10791;53.108;18.326;2022-10-20T11:40:31;10.80;;;4.07;;
21266;SDS011;10791;53.108;18.326;2022-10-20T11:45:51;9.73;;;4.33;;
21266;SDS011;10791;53.108;18.326;2022-10-20T12:07:48;5.37;;;1.20;;
21266;SDS011;10791;53.108;18.326;2022-10-20T12:13:34;2.83;;;0.70;;
21266;SDS011;10791;53.108;18.326;2022-10-20T12:18:49;2.43;;;0.70;;
21266;SDS011;10791;53.108;18.326;2022-10-20T12:24:30;2.87;;;0.70;;
21266;SDS011;10791;53.108;18.326;2022-10-20T12:34:43;1.37;;;0.87;;
21266;SDS011;10791;53.108;18.326;2022-10-20T12:39:46;2.57;;;0.70;;
21266;SDS011;10791;53.108;18.326;2022-10-20T12:44:49;1.83;;;0.80;;
21266;SDS011;10791;53.108;18.326;2022-10-20T13:05:25;1.77;;;0.73;;
21266;SDS011;10791;53.108;18.326;2022-10-20T13:10:33;1.40;;;0.50;;
21266;SDS011;10791;53.108;18.326;2022-10-20T13:53:02;2.20;;;0.87;;
21266;SDS011;10791;53.108;18.326;2022-10-20T13:58:35;3.13;;;1.17;;
21266;SDS011;10791;53.108;18.326;2022-10-20T14:03:40;5.60;;;1.80;;
21266;SDS011;10791;53.108;18.326;2022-10-20T14:08:47;4.17;;;1.50;;
21266;SDS011;10791;53.108;18.326;2022-10-20T14:13:51;4.27;;;1.97;;
21266;SDS011;10791;53.108;18.326;2022-10-20T14:19:02;5.13;;;2.00;;
21266;SDS011;10791;53.108;18.326;2022-10-20T14:24:12;4.30;;;1.93;;
21266;SDS011;10791;53.108;18.326;2022-10-20T14:29:34;4.43;;;1.60;;
21266;SDS011;10791;53.108;18.326;2022-10-20T14:34:51;5.10;;;1.40;;
21266;SDS011;10791;53.108;18.326;2022-10-20T14:39:59;4.40;;;2.10;;
21266;SDS011;10791;53.108;18.326;2022-10-20T14:45:05;5.33;;;2.27;;
21266;SDS011;10791;53.108;18.326;2022-10-20T14:50:23;4.93;;;2.63;;
21266;SDS011;10791;53.108;18.326;2022-10-20T14:55:33;6.43;;;3.37;;
21266;SDS011;10791;53.108;18.326;2022-10-20T15:00:39;5.70;;;2.50;;
21266;SDS011;10791;53.108;18.326;2022-10-20T15:05:44;6.83;;;2.77;;
21266;SDS011;10791;53.108;18.326;2022-10-20T15:10:49;6.93;;;3.50;;
21266;SDS011;10791;53.108;18.326;2022-10-20T15:15:53;11.00;;;4.13;;
21266;SDS011;10791;53.108;18.326;2022-10-20T15:20:58;8.57;;;4.00;;
21266;SDS011;10791;53.108;18.326;2022-10-20T15:26:03;10.70;;;4.87;;
21266;SDS011;10791;53.108;18.326;2022-10-20T15:31:16;8.07;;;4.13;;
21266;SDS011;10791;53.108;18.326;2022-10-20T15:36:26;6.13;;;3.33;;
21266;SDS011;10791;53.108;18.326;2022-10-20T15:41:35;6.93;;;3.60;;
21266;SDS011;10791;53.108;18.326;2022-10-20T15:46:39;6.70;;;4.20;;
21266;SDS011;10791;53.108;18.326;2022-10-20T15:51:44;29.73;;;12.10;;
21266;SDS011;10791;53.108;18.326;2022-10-20T15:56:48;26.73;;;10.47;;
21266;SDS011;10791;53.108;18.326;2022-10-20T16:01:57;19.13;;;8.87;;
21266;SDS011;10791;53.108;18.326;2022-10-20T16:07:01;20.00;;;8.40;;
21266;SDS011;10791;53.108;18.326;2022-10-20T16:12:05;18.37;;;8.03;;
21266;SDS011;10791;53.108;18.326;2022-10-20T16:17:08;16.00;;;8.20;;
21266;SDS011;10791;53.108;18.326;2022-10-20T16:22:12;28.77;;;12.10;;
21266;SDS011;10791;53.108;18.326;2022-10-20T16:27:16;27.27;;;14.70;;
21266;SDS011;10791;53.108;18.326;2022-10-20T16:32:19;24.17;;;14.33;;
21266;SDS011;10791;53.108;18.326;2022-10-20T16:37:24;48.83;;;25.17;;
21266;SDS011;10791;53.108;18.326;2022-10-20T16:42:28;44.40;;;22.83;;
21266;SDS011;10791;53.108;18.326;2022-10-20T16:47:39;46.77;;;24.03;;
21266;SDS011;10791;53.108;18.326;2022-10-20T16:52:43;52.27;;;25.80;;
21266;SDS011;10791;53.108;18.326;2022-10-20T16:57:47;66.63;;;31.13;;
21266;SDS011;10791;53.108;18.326;2022-10-20T17:02:51;55.97;;;25.53;;
21266;SDS011;10791;53.108;18.326;2022-10-20T17:07:59;44.37;;;22.90;;
21266;SDS011;10791;53.108;18.326;2022-10-20T17:13:02;99.43;;;47.87;;
21266;SDS011;10791;53.108;18.326;2022-10-20T17:18:09;85.67;;;39.47;;
21266;SDS011;10791;53.108;18.326;2022-10-20T17:23:15;67.83;;;34.23;;
21266;SDS011;10791;53.108;18.326;2022-10-20T17:28:19;66.80;;;31.53;;
21266;SDS011;10791;53.108;18.326;2022-10-20T17:33:24;52.27;;;24.47;;
21266;SDS011;10791;53.108;18.326;2022-10-20T17:38:31;47.40;;;22.80;;
21266;SDS011;10791;53.108;18.326;2022-10-20T17:43:35;36.90;;;15.53;;
21266;SDS011;10791;53.108;18.326;2022-10-20T17:48:40;24.50;;;11.90;;
21266;SDS011;10791;53.108;18.326;2022-10-20T17:53:44;28.40;;;12.80;;
21266;SDS011;10791;53.108;18.326;2022-10-20T17:58:54;29.43;;;14.83;;
21266;SDS011;10791;53.108;18.326;2022-10-20T18:04:00;42.87;;;20.87;;
21266;SDS011;10791;53.108;18.326;2022-10-20T18:09:14;45.80;;;22.17;;
21266;SDS011;10791;53.108;18.326;2022-10-20T18:14:22;40.80;;;21.37;;
21266;SDS011;10791;53.108;18.326;2022-10-20T18:19:33;42.33;;;21.10;;
21266;SDS011;10791;53.108;18.326;2022-10-20T18:24:37;38.40;;;18.33;;
21266;SDS011;10791;53.108;18.326;2022-10-20T18:29:42;40.13;;;20.80;;
21266;SDS011;10791;53.108;18.326;2022-10-20T18:34:47;38.97;;;22.77;;
21266;SDS011;10791;53.108;18.326;2022-10-20T18:39:52;48.23;;;23.73;;
21266;SDS011;10791;53.108;18.326;2022-10-20T18:44:58;38.80;;;19.90;;
21266;SDS011;10791;53.108;18.326;2022-10-20T18:50:03;34.93;;;19.10;;
21266;SDS011;10791;53.108;18.326;2022-10-20T18:55:09;36.63;;;17.90;;
21266;SDS011;10791;53.108;18.326;2022-10-20T19:00:13;39.77;;;19.60;;
21266;SDS011;10791;53.108;18.326;2022-10-20T19:05:19;34.27;;;18.07;;
21266;SDS011;10791;53.108;18.326;2022-10-20T19:10:26;33.13;;;16.87;;
21266;SDS011;10791;53.108;18.326;2022-10-20T19:15:31;29.53;;;15.60;;
21266;SDS011;10791;53.108;18.326;2022-10-20T19:20:37;26.03;;;14.87;;
21266;SDS011;10791;53.108;18.326;2022-10-20T19:25:41;32.57;;;15.80;;
21266;SDS011;10791;53.108;18.326;2022-10-20T19:30:45;33.57;;;16.20;;
21266;SDS011;10791;53.108;18.326;2022-10-20T19:35:50;37.10;;;16.70;;
21266;SDS011;10791;53.108;18.326;2022-10-20T19:40:55;32.80;;;17.77;;
21266;SDS011;10791;53.108;18.326;2022-10-20T19:45:59;35.83;;;18.37;;
21266;SDS011;10791;53.108;18.326;2022-10-20T19:51:03;37.10;;;18.90;;
21266;SDS011;10791;53.108;18.326;2022-10-20T19:56:08;34.27;;;17.13;;
21266;SDS011;10791;53.108;18.326;2022-10-20T20:01:13;36.63;;;18.63;;
21266;SDS011;10791;53.108;18.326;2022-10-20T20:06:19;38.23;;;19.97;;
21266;SDS011;10791;53.108;18.326;2022-10-20T20:11:24;40.63;;;20.53;;
21266;SDS011;10791;53.108;18.326;2022-10-20T20:16:31;43.97;;;21.07;;
21266;SDS011;10791;53.108;18.326;2022-10-20T20:21:37;43.10;;;20.27;;
21266;SDS011;10791;53.108;18.326;2022-10-20T20:26:41;38.67;;;20.23;;
21266;SDS011;10791;53.108;18.326;2022-10-20T20:31:46;38.20;;;20.37;;
21266;SDS011;10791;53.108;18.326;2022-10-20T20:36:52;46.03;;;24.03;;
21266;SDS011;10791;53.108;18.326;2022-10-20T20:41:56;43.67;;;25.73;;
21266;SDS011;10791;53.108;18.326;2022-10-20T20:47:01;45.00;;;23.33;;
21266;SDS011;10791;53.108;18.326;2022-10-20T20:52:04;45.57;;;22.93;;
21266;SDS011;10791;53.108;18.326;2022-10-20T20:57:08;39.30;;;22.23;;
21266;SDS011;10791;53.108;18.326;2022-10-20T21:02:11;36.13;;;21.00;;
21266;SDS011;10791;53.108;18.326;2022-10-20T21:07:16;35.10;;;20.03;;
21266;SDS011;10791;53.108;18.326;2022-10-20T21:12:20;36.90;;;20.67;;
21266;SDS011;10791;53.108;18.326;2022-10-20T21:17:24;39.60;;;21.63;;
21266;SDS011;10791;53.108;18.326;2022-10-20T21:22:28;47.77;;;25.80;;
21266;SDS011;10791;53.108;18.326;2022-10-20T21:27:31;38.10;;;20.53;;
21266;SDS011;10791;53.108;18.326;2022-10-20T21:32:35;31.13;;;17.40;;
21266;SDS011;10791;53.108;18.326;2022-10-20T21:37:40;30.50;;;18.10;;
21266;SDS011;10791;53.108;18.326;2022-10-20T21:42:45;32.90;;;18.43;;
21266;SDS011;10791;53.108;18.326;2022-10-20T21:47:52;32.23;;;17.33;;
21266;SDS011;10791;53.108;18.326;2022-10-20T21:52:57;26.17;;;15.23;;
21266;SDS011;10791;53.108;18.326;2022-10-20T21:58:00;27.90;;;14.93;;
21266;SDS011;10791;53.108;18.326;2022-10-20T22:03:03;28.60;;;15.40;;
21266;SDS011;10791;53.108;18.326;2022-10-20T22:08:07;31.00;;;16.13;;
21266;SDS011;10791;53.108;18.326;2022-10-20T22:13:10;29.33;;;14.70;;
21266;SDS011;10791;53.108;18.326;2022-10-20T22:18:14;25.77;;;14.73;;
21266;SDS011;10791;53.108;18.326;2022-10-20T22:23:17;29.10;;;16.33;;
21266;SDS011;10791;53.108;18.326;2022-10-20T22:28:20;37.87;;;18.90;;
21266;SDS011;10791;53.108;18.326;2022-10-20T22:33:24;33.20;;;17.23;;
21266;SDS011;10791;53.108;18.326;2022-10-20T22:38:28;26.20;;;15.20;;
21266;SDS011;10791;53.108;18.326;2022-10-20T22:43:31;42.87;;;16.87;;
21266;SDS011;10791;53.108;18.326;2022-10-20T22:48:34;28.27;;;15.67;;
21266;SDS011;10791;53.108;18.326;2022-10-20T22:53:38;27.60;;;15.60;;
21266;SDS011;10791;53.108;18.326;2022-10-20T22:58:42;32.90;;;16.37;;
21266;SDS011;10791;53.108;18.326;2022-10-20T23:03:46;29.13;;;15.67;;
21266;SDS011;10791;53.108;18.326;2022-10-20T23:08:54;27.17;;;15.67;;
21266;SDS011;10791;53.108;18.326;2022-10-20T23:13:58;30.50;;;15.43;;
21266;SDS011;10791;53.108;18.326;2022-10-20T23:19:02;27.23;;;15.37;;
21266;SDS011;10791;53.108;18.326;2022-10-20T23:24:05;27.23;;;13.23;;
21266;SDS011;10791;53.108;18.326;2022-10-20T23:29:08;23.97;;;12.90;;
21266;SDS011;10791;53.108;18.326;2022-10-20T23:34:12;28.30;;;13.97;;
21266;SDS011;10791;53.108;18.326;2022-10-20T23:39:15;24.53;;;13.70;;
21266;SDS011;10791;53.108;18.326;2022-10-20T23:44:19;26.53;;;14.53;;
21266;SDS011;10791;53.108;18.326;2022-10-20T23:49:22;24.20;;;12.57;;
21266;SDS011;10791;53.108;18.326;2022-10-20T23:54:25;32.07;;;15.20;;
21266;SDS011;10791;53.108;18.326;2022-10-20T23:59:29;27.43;;;13.50;;
